Time;durP1;ratioP1;P1;durP2;ratioP2;P2;SDS_P1;SDS_P2;PMS_P1;PMS_P2;Temp;Humidity;BMP_temperature;BMP_pressure;BME280_temperature;BME280_humidity;BME280_pressure;Samples;Min_cycle;Max_cycle;Signal;HPM_P1;HPM_P2
2023/06/20 00:01:06;;;;;;;9.70;5.83;;;;;;;26.72;49.44;97026.97;5087565;28;20759;-68
2023/06/20 00:03:31;;;;;;;8.30;6.00;;;;;;;26.60;49.58;97045.16;5088388;28;20258;-69
2023/06/20 00:05:56;;;;;;;6.57;5.97;;;;;;;26.57;49.89;97051.88;5087398;28;20284;-69
2023/06/20 00:08:22;;;;;;;7.53;6.33;;;;;;;26.64;49.85;97051.66;5069631;28;20216;-69
2023/06/20 00:10:47;;;;;;;7.10;6.50;;;;;;;26.66;49.37;97060.25;5091375;28;20186;-69
2023/06/20 00:13:13;;;;;;;7.03;6.33;;;;;;;26.59;49.17;97070.44;5087423;28;20217;-70
2023/06/20 00:15:41;;;;;;;6.67;6.07;;;;;;;26.64;48.72;97073.16;5090244;28;20342;-70
2023/06/20 00:18:06;;;;;;;6.37;5.77;;;;;;;26.63;48.59;97088.47;5087888;28;20729;-70
2023/06/20 00:20:32;;;;;;;6.27;5.70;;;;;;;26.53;48.71;97089.22;5052979;28;20451;-68
2023/06/20 00:22:57;;;;;;;6.50;5.90;;;;;;;26.58;48.76;97093.00;5087345;28;20562;-69
2023/06/20 00:25:23;;;;;;;10.23;5.90;;;;;;;26.50;48.30;97100.47;5092889;28;20274;-69
2023/06/20 00:27:48;;;;;;;7.40;6.00;;;;;;;26.54;48.09;97111.50;5081517;28;20221;-70
2023/06/20 00:30:15;;;;;;;6.30;5.70;;;;;;;26.44;48.23;97127.53;5088185;28;20776;-69
2023/06/20 00:32:40;;;;;;;6.93;6.40;;;;;;;26.41;48.28;97154.91;5088334;28;20241;-69
2023/06/20 00:35:06;;;;;;;7.33;5.93;;;;;;;26.27;49.15;97186.75;5087263;28;20435;-68
2023/06/20 00:37:34;;;;;;;6.83;6.13;;;;;;;26.05;50.25;97214.47;5090096;28;20194;-68
2023/06/20 00:39:59;;;;;;;9.30;5.97;;;;;;;25.85;51.87;97242.69;5093990;28;20205;-70
2023/06/20 00:42:24;;;;;;;10.23;6.40;;;;;;;25.57;54.02;97271.34;5091142;28;20430;-70
2023/06/20 00:44:50;;;;;;;7.40;6.67;;;;;;;25.53;55.03;97262.16;5096073;28;20217;-69
2023/06/20 00:47:19;;;;;;;10.77;7.20;;;;;;;25.65;55.71;97271.94;5087794;28;20230;-69
2023/06/20 00:49:46;;;;;;;11.23;7.17;;;;;;;25.13;57.95;97276.56;5087685;28;20301;-68
2023/06/20 00:52:17;;;;;;;8.43;7.00;;;;;;;25.25;58.07;97271.91;5089648;28;20442;-69
2023/06/20 00:54:47;;;;;;;13.83;7.87;;;;;;;25.14;58.56;97264.78;5071624;28;20520;-69
2023/06/20 00:57:13;;;;;;;11.57;6.80;;;;;;;24.93;58.80;97267.16;5087381;28;20459;-69
2023/06/20 00:59:42;;;;;;;8.00;6.70;;;;;;;24.83;59.54;97261.59;5086106;28;20986;-68
2023/06/20 01:02:08;;;;;;;9.00;7.40;;;;;;;24.71;59.52;97266.22;5087289;28;20411;-69
2023/06/20 01:04:33;;;;;;;7.33;6.63;;;;;;;24.57;59.97;97279.91;5092555;28;21296;-68
2023/06/20 01:07:03;;;;;;;8.27;6.20;;;;;;;24.54;60.40;97267.81;5089086;28;20783;-69
2023/06/20 01:09:38;;;;;;;7.50;6.67;;;;;;;24.67;60.31;97274.72;5073770;28;20209;-69
2023/06/20 01:12:23;;;;;;;9.30;5.97;;;;;;;24.38;61.00;97277.44;5090450;28;20864;-69
2023/06/20 01:15:13;;;;;;;6.90;6.20;;;;;;;24.46;61.20;97273.56;5073146;28;20427;-69
2023/06/20 01:17:39;;;;;;;8.63;6.70;;;;;;;24.37;61.69;97275.81;5085036;28;20493;-68
2023/06/20 01:20:16;;;;;;;7.40;5.90;;;;;;;24.27;62.02;97269.44;5084097;28;20451;-69
2023/06/20 01:22:49;;;;;;;10.00;6.87;;;;;;;24.24;61.69;97276.09;5073191;28;20662;-69
2023/06/20 01:25:24;;;;;;;7.50;6.00;;;;;;;24.30;61.62;97275.16;5072969;28;20550;-68
2023/06/20 01:28:04;;;;;;;8.47;5.80;;;;;;;24.33;61.21;97263.94;5073136;28;20430;-68
2023/06/20 01:30:43;;;;;;;7.53;5.80;;;;;;;24.35;61.71;97261.84;5093219;28;20546;-70
2023/06/20 01:33:09;;;;;;;5.70;4.70;;;;;;;24.24;61.41;97254.66;5081492;28;20418;-68
2023/06/20 01:35:36;;;;;;;7.93;5.47;;;;;;;24.26;61.48;97244.53;5072538;28;20424;-69
2023/06/20 01:38:07;;;;;;;7.27;5.00;;;;;;;24.28;61.64;97223.69;5086932;28;20829;-69
2023/06/20 01:40:33;;;;;;;6.47;5.87;;;;;;;24.42;61.38;97210.00;5099350;28;20446;-69
2023/06/20 01:42:59;;;;;;;7.80;5.50;;;;;;;24.37;61.12;97216.88;5072582;28;20428;-69
2023/06/20 01:45:27;;;;;;;5.67;4.97;;;;;;;24.12;62.07;97237.84;5072279;28;20459;-70
2023/06/20 01:47:57;;;;;;;6.20;4.50;;;;;;;24.20;61.92;97229.41;5073004;28;20783;-70
2023/06/20 01:50:24;;;;;;;5.10;4.60;;;;;;;24.10;62.29;97207.81;5072214;28;20444;-69
2023/06/20 01:52:50;;;;;;;5.10;4.70;;;;;;;24.17;62.59;97216.53;5072647;28;20423;-70
2023/06/20 01:55:20;;;;;;;5.60;5.00;;;;;;;24.25;62.43;97201.94;5071655;28;20430;-70
2023/06/20 01:57:46;;;;;;;7.77;5.50;;;;;;;24.27;62.23;97200.66;5071465;28;20519;-69
2023/06/20 02:00:12;;;;;;;5.33;4.83;;;;;;;24.20;62.07;97208.84;5071732;28;20463;-69
2023/06/20 02:02:38;;;;;;;6.40;5.50;;;;;;;24.30;62.03;97199.34;5090537;28;20189;-69
2023/06/20 02:05:06;;;;;;;5.47;4.97;;;;;;;24.22;62.17;97209.41;5071284;28;20239;-69
2023/06/20 02:07:31;;;;;;;5.53;4.90;;;;;;;24.15;62.42;97205.25;5054918;28;20604;-68
2023/06/20 02:09:58;;;;;;;5.57;5.00;;;;;;;24.23;62.15;97210.19;5089031;28;20543;-69
2023/06/20 02:12:24;;;;;;;6.63;5.07;;;;;;;24.26;61.77;97199.03;5088896;28;20190;-69
2023/06/20 02:14:51;;;;;;;5.60;4.80;;;;;;;24.19;61.69;97201.06;5090073;28;20435;-69
2023/06/20 02:17:17;;;;;;;6.70;5.10;;;;;;;24.20;61.76;97189.25;5071229;28;20467;-70
2023/06/20 02:19:43;;;;;;;5.57;5.07;;;;;;;24.30;61.85;97186.78;5088948;28;20949;-70
2023/06/20 02:22:11;;;;;;;5.40;4.47;;;;;;;24.35;61.98;97176.16;5089682;28;20423;-69
2023/06/20 02:24:37;;;;;;;6.00;4.50;;;;;;;24.39;61.40;97177.28;5070899;28;20196;-70
2023/06/20 02:27:03;;;;;;;5.40;4.87;;;;;;;24.43;61.32;97176.81;5089303;28;21316;-69
2023/06/20 02:29:33;;;;;;;5.60;4.70;;;;;;;24.41;61.46;97155.63;5082594;28;20209;-69
2023/06/20 02:31:59;;;;;;;5.40;5.00;;;;;;;24.46;61.88;97163.75;5075694;28;20515;-68
2023/06/20 02:34:26;;;;;;;5.50;5.00;;;;;;;24.44;61.61;97155.13;5092295;28;20461;-68
2023/06/20 02:36:55;;;;;;;7.10;4.67;;;;;;;24.34;61.20;97147.75;5093367;28;20420;-68
2023/06/20 02:39:21;;;;;;;8.37;5.37;;;;;;;24.33;61.48;97156.03;5075751;28;20463;-69
2023/06/20 02:41:46;;;;;;;4.67;4.33;;;;;;;24.34;61.78;97161.13;5074694;28;20420;-67
2023/06/20 02:44:12;;;;;;;6.83;4.67;;;;;;;24.36;61.74;97164.38;5090390;28;20307;-69
2023/06/20 02:47:02;;;;;;;7.80;4.80;;;;;;;24.38;61.58;97164.97;5096448;28;20309;-68
2023/06/20 02:49:34;;;;;;;8.40;5.23;;;;;;;24.33;60.87;97166.75;5104587;28;20734;-68
2023/06/20 02:52:16;;;;;;;5.00;4.60;;;;;;;24.30;61.80;97153.84;5099331;28;20931;-69
2023/06/20 02:54:59;;;;;;;5.70;5.20;;;;;;;24.29;62.28;97147.69;5081513;28;20423;-68
2023/06/20 02:57:27;;;;;;;6.83;5.40;;;;;;;24.28;61.99;97145.22;5096504;28;20485;-68
2023/06/20 03:00:00;;;;;;;5.40;4.90;;;;;;;24.22;62.08;97147.00;5071499;28;20854;-70
2023/06/20 03:02:29;;;;;;;6.10;4.67;;;;;;;24.09;61.73;97153.50;5054165;28;20781;-68
2023/06/20 03:04:59;;;;;;;6.07;5.47;;;;;;;24.13;62.01;97162.63;5070867;28;20868;-68
2023/06/20 03:07:26;;;;;;;9.93;4.97;;;;;;;24.19;62.15;97160.91;5062063;28;20563;-68
2023/06/20 03:09:54;;;;;;;5.80;4.63;;;;;;;24.23;61.31;97164.69;5051177;28;20449;-68
2023/06/20 03:12:20;;;;;;;6.63;5.17;;;;;;;24.28;61.39;97158.59;5070872;28;20428;-69
2023/06/20 03:14:45;;;;;;;5.37;4.87;;;;;;;24.27;61.18;97162.34;5070282;28;20451;-69
2023/06/20 03:17:13;;;;;;;5.63;5.13;;;;;;;24.23;61.42;97162.84;5097946;28;20459;-68
2023/06/20 03:19:38;;;;;;;5.57;5.07;;;;;;;24.19;61.58;97164.38;5093279;28;20201;-68
2023/06/20 03:22:03;;;;;;;5.80;5.10;;;;;;;24.23;61.37;97162.84;5075809;28;20470;-68
2023/06/20 03:24:29;;;;;;;5.60;4.77;;;;;;;24.27;61.70;97173.03;5103882;28;20186;-68
2023/06/20 03:26:54;;;;;;;5.97;5.47;;;;;;;24.28;61.74;97170.16;5085357;28;20209;-67
2023/06/20 03:29:20;;;;;;;10.13;5.00;;;;;;;24.28;61.96;97175.50;5086884;28;20611;-69
2023/06/20 03:31:45;;;;;;;6.57;5.43;;;;;;;24.28;61.68;97174.69;5090404;28;20285;-68
2023/06/20 03:34:11;;;;;;;5.80;5.20;;;;;;;24.28;62.28;97170.16;5090000;28;20277;-71
2023/06/20 03:36:38;;;;;;;7.27;5.00;;;;;;;24.24;62.23;97169.00;5093782;28;20268;-70
2023/06/20 03:39:03;;;;;;;5.97;5.20;;;;;;;24.22;62.13;97169.25;5094156;28;20250;-69
2023/06/20 03:41:29;;;;;;;8.67;5.47;;;;;;;24.21;61.70;97169.47;5090968;28;20428;-70
2023/06/20 03:43:54;;;;;;;7.70;5.57;;;;;;;24.22;61.65;97166.56;5093109;28;20280;-70
2023/06/20 03:46:20;;;;;;;6.47;5.23;;;;;;;24.20;61.40;97167.84;5104847;28;20509;-69
2023/06/20 03:48:45;;;;;;;6.67;5.20;;;;;;;24.19;61.75;97160.91;5108044;28;20191;-70
2023/06/20 03:51:11;;;;;;;6.07;5.30;;;;;;;24.20;61.52;97162.50;5064199;28;20256;-70
2023/06/20 03:53:36;;;;;;;6.70;6.00;;;;;;;24.22;61.68;97163.06;5097598;28;20196;-69
2023/06/20 03:56:02;;;;;;;6.53;5.63;;;;;;;24.21;61.58;97164.13;5096154;28;20666;-69
2023/06/20 03:58:28;;;;;;;6.70;5.03;;;;;;;24.19;61.31;97160.91;5092900;28;20776;-70
2023/06/20 04:00:53;;;;;;;5.77;5.27;;;;;;;24.11;60.93;97159.41;5090044;28;20444;-70
2023/06/20 04:03:19;;;;;;;6.40;5.30;;;;;;;24.06;61.18;97152.13;5088928;28;20235;-70
2023/06/20 04:05:44;;;;;;;6.23;5.27;;;;;;;23.88;61.49;97158.41;5094993;28;20299;-68
2023/06/20 04:08:09;;;;;;;7.20;5.00;;;;;;;23.87;61.69;97170.22;5086104;28;20562;-69
2023/06/20 04:10:37;;;;;;;6.00;5.37;;;;;;;23.75;61.60;97167.56;5087608;28;20270;-68
2023/06/20 04:13:02;;;;;;;5.97;5.30;;;;;;;23.68;62.39;97168.75;5086665;28;20221;-68
2023/06/20 04:15:29;;;;;;;6.10;5.50;;;;;;;23.71;62.35;97169.06;5086302;28;21716;-69
2023/06/20 04:17:55;;;;;;;5.57;5.07;;;;;;;23.74;62.51;97165.94;5087281;28;20189;-68
2023/06/20 04:20:20;;;;;;;6.27;5.00;;;;;;;23.72;62.24;97168.03;5090351;28;20530;-69
2023/06/20 04:22:46;;;;;;;9.50;5.63;;;;;;;23.72;62.57;97168.03;5089447;28;20497;-69
2023/06/20 04:25:14;;;;;;;8.23;5.97;;;;;;;23.69;62.32;97165.81;5093623;28;20208;-68
2023/06/20 04:27:40;;;;;;;11.10;5.23;;;;;;;23.68;62.52;97172.25;5088585;28;20573;-68
2023/06/20 04:30:06;;;;;;;6.57;5.50;;;;;;;23.66;62.44;97179.69;5068273;28;20456;-69
2023/06/20 04:32:32;;;;;;;5.67;5.13;;;;;;;23.66;62.74;97171.66;5087186;28;20658;-68
2023/06/20 04:34:58;;;;;;;10.20;5.17;;;;;;;23.74;62.68;97173.16;5088141;28;20488;-69
2023/06/20 04:37:23;;;;;;;7.20;5.27;;;;;;;23.78;62.55;97172.44;5087064;28;20419;-70
2023/06/20 04:39:49;;;;;;;7.67;5.37;;;;;;;23.87;62.58;97169.38;5091637;28;20209;-69
2023/06/20 04:42:14;;;;;;;5.97;4.60;;;;;;;23.88;62.44;97171.81;5089341;28;20196;-68
2023/06/20 04:44:40;;;;;;;5.20;4.70;;;;;;;23.98;62.38;97171.22;5090966;28;20852;-68
2023/06/20 04:47:05;;;;;;;5.90;4.93;;;;;;;24.05;62.95;97169.22;5090522;28;20698;-69
2023/06/20 04:49:31;;;;;;;7.20;4.90;;;;;;;24.10;62.74;97160.47;5093185;28;20212;-69
2023/06/20 04:51:59;;;;;;;5.87;4.87;;;;;;;24.15;62.23;97162.41;5081575;28;20238;-69
2023/06/20 04:54:25;;;;;;;7.93;5.40;;;;;;;24.18;61.82;97161.94;5093832;28;20269;-69
2023/06/20 04:56:50;;;;;;;8.27;5.20;;;;;;;24.26;62.19;97164.22;5091023;28;20857;-70
2023/06/20 04:59:16;;;;;;;6.63;5.20;;;;;;;24.27;61.72;97160.50;5098706;28;20216;-68
2023/06/20 05:01:41;;;;;;;6.97;5.03;;;;;;;24.28;62.04;97172.81;5091236;28;20235;-68
2023/06/20 05:04:07;;;;;;;5.10;4.60;;;;;;;24.27;61.78;97173.03;5091173;28;20196;-69
2023/06/20 05:06:32;;;;;;;5.60;4.90;;;;;;;24.24;61.96;97177.03;5089484;28;20304;-69
2023/06/20 05:08:59;;;;;;;6.20;4.30;;;;;;;24.29;61.50;97189.69;5095012;28;20288;-69
2023/06/20 05:11:25;;;;;;;5.03;4.57;;;;;;;24.28;61.63;97188.88;5094500;28;20750;-69
2023/06/20 05:13:51;;;;;;;7.50;4.50;;;;;;;24.32;61.63;97189.22;5090580;28;20423;-69
2023/06/20 05:16:16;;;;;;;9.87;4.43;;;;;;;24.38;61.52;97190.94;5091027;28;20473;-69
2023/06/20 05:18:42;;;;;;;5.50;4.30;;;;;;;24.45;61.59;97191.59;5097440;28;20186;-70
2023/06/20 05:21:07;;;;;;;9.03;4.63;;;;;;;24.53;61.24;97193.06;5090114;28;20194;-69
2023/06/20 05:23:33;;;;;;;4.97;4.47;;;;;;;24.59;60.64;97200.09;5077267;28;20812;-69
2023/06/20 05:26:00;;;;;;;5.00;3.83;;;;;;;24.62;60.35;97199.63;5095897;28;20450;-69
2023/06/20 05:28:26;;;;;;;5.30;4.23;;;;;;;24.73;60.13;97199.81;5091128;28;20185;-68
2023/06/20 05:30:51;;;;;;;6.10;3.93;;;;;;;24.83;59.82;97202.66;5090378;28;20535;-69
2023/06/20 05:33:17;;;;;;;8.20;3.70;;;;;;;24.88;58.96;97197.38;5097704;28;20217;-69
2023/06/20 05:35:44;;;;;;;4.87;3.70;;;;;;;25.00;58.74;97202.66;5093687;28;20177;-69
2023/06/20 05:38:10;;;;;;;3.93;3.63;;;;;;;25.05;58.08;97202.72;5094514;28;20228;-69
2023/06/20 05:40:36;;;;;;;8.00;4.63;;;;;;;25.16;58.34;97206.38;5093711;28;20580;-69
2023/06/20 05:43:01;;;;;;;6.73;3.97;;;;;;;25.21;57.86;97198.38;5089905;28;20457;-70
2023/06/20 05:45:27;;;;;;;8.07;4.33;;;;;;;25.14;57.31;97195.06;5089156;28;20213;-69
2023/06/20 05:47:52;;;;;;;6.73;4.00;;;;;;;24.97;57.48;97203.94;5076524;28;20281;-69
2023/06/20 05:50:18;;;;;;;4.60;4.00;;;;;;;25.06;57.56;97198.19;5090179;28;20305;-69
2023/06/20 05:52:43;;;;;;;9.10;4.30;;;;;;;25.00;56.67;97202.66;5069853;28;20247;-70
2023/06/20 05:55:09;;;;;;;3.80;3.40;;;;;;;25.18;56.33;97195.38;5089738;28;20190;-69
2023/06/20 05:57:35;;;;;;;7.20;4.10;;;;;;;25.30;56.34;97202.28;5089279;28;20202;-70
2023/06/20 06:00:00;;;;;;;12.03;4.67;;;;;;;25.44;55.91;97196.59;5093597;28;20206;-70
2023/06/20 06:02:26;;;;;;;5.20;4.30;;;;;;;25.22;55.47;97194.63;5088954;28;20185;-70
2023/06/20 06:04:51;;;;;;;5.80;4.37;;;;;;;25.37;55.16;97193.22;5090031;28;20251;-70
2023/06/20 06:07:17;;;;;;;6.30;4.00;;;;;;;25.51;55.16;97207.94;5091565;28;20234;-69
2023/06/20 06:09:42;;;;;;;6.33;4.27;;;;;;;25.54;54.65;97196.69;5090312;28;20282;-68
2023/06/20 06:12:08;;;;;;;6.90;4.57;;;;;;;25.58;54.88;97203.16;5090108;28;20265;-68
2023/06/20 06:14:33;;;;;;;6.63;4.70;;;;;;;25.71;54.83;97201.19;5079405;28;20185;-69
2023/06/20 06:16:59;;;;;;;4.20;3.90;;;;;;;25.68;54.95;97205.19;5089321;28;20193;-70
2023/06/20 06:19:25;;;;;;;5.93;4.13;;;;;;;25.78;54.71;97199.13;5089875;28;20367;-70
2023/06/20 06:21:50;;;;;;;6.20;4.17;;;;;;;25.94;54.15;97204.66;5089246;28;20218;-69
2023/06/20 06:24:15;;;;;;;5.93;4.30;;;;;;;26.04;53.89;97200.22;5089896;28;20192;-69
2023/06/20 06:26:41;;;;;;;8.30;4.13;;;;;;;26.17;54.10;97199.03;5088407;28;20227;-68
2023/06/20 06:29:06;;;;;;;5.40;4.80;;;;;;;26.28;53.57;97205.31;5096542;28;20213;-69
2023/06/20 06:31:33;;;;;;;6.07;4.47;;;;;;;26.31;52.60;97217.44;5095514;28;20220;-70
2023/06/20 06:34:00;;;;;;;5.40;4.50;;;;;;;26.32;53.05;97211.00;5104047;28;20289;-69
2023/06/20 06:36:26;;;;;;;6.77;4.90;;;;;;;26.31;53.03;97202.13;5088639;28;20423;-69
2023/06/20 06:38:51;;;;;;;5.23;4.50;;;;;;;26.59;52.64;97205.59;5070819;28;20928;-70
2023/06/20 06:41:18;;;;;;;8.47;4.63;;;;;;;26.77;52.10;97209.75;5072296;28;20427;-69
2023/06/20 06:43:44;;;;;;;5.70;4.40;;;;;;;26.82;51.44;97215.22;5092806;28;20186;-68
2023/06/20 06:46:09;;;;;;;6.87;4.67;;;;;;;26.99;51.31;97206.16;5095899;28;20462;-69
2023/06/20 06:48:35;;;;;;;8.43;4.23;;;;;;;27.10;50.81;97212.44;5089045;28;21174;-70
2023/06/20 06:51:01;;;;;;;11.50;4.83;;;;;;;27.12;50.50;97218.38;5092554;28;20344;-70
2023/06/20 06:53:26;;;;;;;7.83;4.60;;;;;;;27.27;50.57;97214.94;5088191;28;20182;-70
2023/06/20 06:55:52;;;;;;;5.47;4.33;;;;;;;27.25;50.06;97217.09;5088812;28;20463;-71
2023/06/20 06:58:17;;;;;;;10.13;4.40;;;;;;;27.50;49.75;97221.84;5090039;28;20269;-69
2023/06/20 07:00:43;;;;;;;5.93;4.30;;;;;;;27.59;49.59;97216.78;5088166;28;20200;-71
2023/06/20 07:03:08;;;;;;;5.13;4.47;;;;;;;27.80;49.78;97219.53;5075643;28;20181;-70
2023/06/20 07:05:34;;;;;;;11.30;5.20;;;;;;;27.84;48.71;97210.66;5091434;28;20206;-70
2023/06/20 07:07:59;;;;;;;5.70;4.50;;;;;;;28.02;48.82;97209.38;5085047;28;20182;-70
2023/06/20 07:10:25;;;;;;;6.37;4.30;;;;;;;27.78;48.47;97203.66;5090813;28;20447;-71
2023/06/20 07:12:50;;;;;;;4.90;4.13;;;;;;;27.71;48.33;97209.28;5090546;28;20193;-71
2023/06/20 07:15:16;;;;;;;7.40;4.73;;;;;;;27.75;48.60;97210.38;5088287;28;20264;-72
2023/06/20 07:17:41;;;;;;;5.63;4.63;;;;;;;27.96;47.90;97210.44;5070568;28;20313;-71
2023/06/20 07:20:09;;;;;;;8.00;5.30;;;;;;;28.14;48.13;97216.44;5088015;28;20210;-69
2023/06/20 07:22:35;;;;;;;7.60;5.00;;;;;;;28.05;46.76;97208.84;5069227;28;20189;-70
2023/06/20 07:25:00;;;;;;;6.10;5.17;;;;;;;28.26;46.78;97208.13;5067153;28;20488;-69
2023/06/20 07:27:26;;;;;;;6.00;4.47;;;;;;;28.32;46.61;97212.41;5087912;28;20197;-70
2023/06/20 07:29:52;;;;;;;14.03;4.83;;;;;;;28.39;46.45;97215.69;5095785;28;20214;-70
2023/06/20 07:32:18;;;;;;;6.27;4.17;;;;;;;28.26;46.47;97217.00;5056535;28;20190;-69
2023/06/20 07:34:44;;;;;;;9.53;5.00;;;;;;;27.94;47.29;97217.97;5089061;28;20189;-69
2023/06/20 07:37:09;;;;;;;7.70;5.03;;;;;;;28.16;46.86;97214.28;5087944;28;20434;-69
2023/06/20 07:39:39;;;;;;;8.20;6.33;;;;;;;28.30;47.07;97218.09;5088734;28;20201;-69
2023/06/20 07:42:05;;;;;;;5.93;4.60;;;;;;;28.46;46.82;97213.50;5089734;28;20194;-68
2023/06/20 07:44:30;;;;;;;10.97;4.93;;;;;;;28.72;46.47;97210.03;5092297;28;20790;-68
2023/06/20 07:46:56;;;;;;;7.03;5.10;;;;;;;28.74;46.15;97213.28;5086208;28;20240;-69
2023/06/20 07:49:21;;;;;;;6.10;5.07;;;;;;;28.78;46.13;97209.78;5089479;28;20209;-68
2023/06/20 07:51:47;;;;;;;8.13;5.30;;;;;;;28.83;45.82;97216.22;5085423;28;20191;-69
2023/06/20 07:54:14;;;;;;;11.33;5.50;;;;;;;28.86;45.70;97210.31;5096718;28;20882;-68
2023/06/20 07:56:39;;;;;;;6.30;4.60;;;;;;;28.87;45.16;97223.50;5086766;28;20181;-68
2023/06/20 07:59:05;;;;;;;7.13;5.10;;;;;;;28.99;45.46;97220.53;5087763;28;20451;-69
2023/06/20 08:01:31;;;;;;;8.43;5.57;;;;;;;29.08;46.12;97223.50;5091779;28;20189;-69
2023/06/20 08:03:57;;;;;;;6.30;4.60;;;;;;;29.22;45.51;97218.34;5089350;28;20196;-69
2023/06/20 08:06:22;;;;;;;7.60;4.70;;;;;;;29.31;45.52;97211.28;5096273;28;20452;-69
2023/06/20 08:08:47;;;;;;;6.33;4.77;;;;;;;29.37;45.81;97209.41;5093090;28;20209;-69
2023/06/20 08:11:13;;;;;;;7.67;4.90;;;;;;;29.47;45.41;97212.13;5105068;28;20177;-70
2023/06/20 08:13:38;;;;;;;5.83;5.20;;;;;;;29.57;44.89;97214.78;5100309;28;20186;-70
2023/06/20 08:16:04;;;;;;;8.43;5.87;;;;;;;29.53;44.41;97213.69;5109469;28;20223;-68
2023/06/20 08:18:29;;;;;;;12.37;5.40;;;;;;;29.71;44.62;97209.56;5104164;28;20198;-69
2023/06/20 08:20:55;;;;;;;8.07;5.57;;;;;;;29.72;43.99;97205.00;5092215;28;20208;-69
2023/06/20 08:23:26;;;;;;;11.00;4.90;;;;;;;29.84;43.69;97218.97;5092319;28;20274;-69
2023/06/20 08:25:53;;;;;;;7.67;5.13;;;;;;;29.80;44.29;97214.41;5083826;28;20680;-69
2023/06/20 08:28:18;;;;;;;5.63;4.90;;;;;;;29.79;43.52;97216.28;5073643;28;21038;-69
2023/06/20 08:30:44;;;;;;;7.97;5.50;;;;;;;29.81;43.42;97210.59;5095130;28;20459;-68
2023/06/20 08:33:09;;;;;;;10.00;4.90;;;;;;;29.93;43.22;97202.19;5103538;28;20185;-67
2023/06/20 08:35:35;;;;;;;7.60;5.27;;;;;;;29.94;43.62;97210.03;5091015;28;20178;-69
2023/06/20 08:38:00;;;;;;;8.37;4.90;;;;;;;30.04;42.21;97203.78;5094057;28;20185;-69
2023/06/20 08:40:26;;;;;;;14.90;5.33;;;;;;;30.32;42.34;97196.03;5092211;28;20205;-69
2023/06/20 08:42:54;;;;;;;8.53;5.40;;;;;;;30.11;41.36;97203.47;5094552;28;20190;-68
2023/06/20 08:45:20;;;;;;;9.00;5.10;;;;;;;30.33;41.04;97198.44;5097119;28;20219;-68
2023/06/20 08:47:46;;;;;;;6.20;4.90;;;;;;;30.62;41.28;97194.22;5073373;28;20424;-68
2023/06/20 08:50:12;;;;;;;9.63;5.07;;;;;;;30.56;40.71;97200.75;5094121;28;20201;-68
2023/06/20 08:52:46;;;;;;;5.77;5.17;;;;;;;30.58;40.38;97199.38;5072355;28;20265;-69
2023/06/20 08:55:14;;;;;;;10.63;5.47;;;;;;;30.85;39.75;97197.25;5091298;28;20188;-69
2023/06/20 08:57:39;;;;;;;6.93;4.53;;;;;;;31.14;40.53;97185.63;5090587;28;20471;-69
2023/06/20 09:00:07;;;;;;;5.67;4.93;;;;;;;31.32;39.50;97187.59;5096593;28;20454;-70
2023/06/20 09:02:33;;;;;;;5.90;5.13;;;;;;;31.40;39.68;97186.97;5099667;28;20234;-68
2023/06/20 09:05:02;;;;;;;11.60;5.40;;;;;;;31.63;39.37;97189.94;5096140;28;20510;-69
2023/06/20 09:07:35;;;;;;;8.83;5.33;;;;;;;31.90;39.58;97185.81;5091418;28;20189;-68
2023/06/20 09:10:01;;;;;;;5.43;4.90;;;;;;;32.07;38.44;97185.31;5102074;28;20952;-68
2023/06/20 09:12:26;;;;;;;7.27;4.83;;;;;;;32.24;38.70;97176.69;5072508;28;20428;-69
2023/06/20 09:14:52;;;;;;;6.40;4.70;;;;;;;32.38;38.33;97167.84;5093816;28;22379;-69
2023/06/20 09:17:19;;;;;;;6.30;4.57;;;;;;;32.53;37.67;97167.56;5091096;28;20213;-68
2023/06/20 09:19:46;;;;;;;7.00;4.47;;;;;;;32.35;36.84;97173.84;5092621;28;20279;-68
2023/06/20 09:22:12;;;;;;;6.53;5.13;;;;;;;32.19;36.78;97173.25;5090844;28;20435;-69
2023/06/20 09:24:45;;;;;;;13.20;4.93;;;;;;;32.39;36.26;97166.69;5090267;28;20439;-69
2023/06/20 09:27:11;;;;;;;12.73;4.83;;;;;;;32.55;36.11;97165.38;5066327;28;20979;-69
2023/06/20 09:29:53;;;;;;;6.77;4.30;;;;;;;32.71;35.19;97159.69;5098427;27;20447;-69
2023/06/20 09:32:22;;;;;;;7.80;4.60;;;;;;;32.92;34.64;97152.81;5091813;28;20430;-69
2023/06/20 09:34:49;;;;;;;6.80;4.50;;;;;;;33.06;34.56;97143.88;5092620;28;20538;-68
2023/06/20 09:37:16;;;;;;;5.40;4.10;;;;;;;33.21;34.40;97148.19;5092768;28;20996;-69
2023/06/20 09:39:42;;;;;;;13.67;5.50;;;;;;;33.48;34.73;97141.16;5090788;28;20451;-68
2023/06/20 09:42:11;;;;;;;6.77;5.20;;;;;;;33.53;34.08;97138.34;5075507;28;20481;-69
2023/06/20 09:44:37;;;;;;;7.07;4.80;;;;;;;33.63;34.47;97140.06;5080300;28;20254;-68
2023/06/20 09:47:02;;;;;;;7.90;5.07;;;;;;;33.57;33.17;97143.97;5092776;28;20561;-69
2023/06/20 09:49:29;;;;;;;13.43;4.63;;;;;;;33.31;33.46;97139.03;5093655;28;20217;-69
2023/06/20 09:52:02;;;;;;;6.93;4.70;;;;;;;33.67;33.66;97135.59;5093790;28;20551;-69
2023/06/20 09:54:44;;;;;;;12.03;5.00;;;;;;;33.73;32.41;97147.97;5069268;28;20473;-69
2023/06/20 09:57:14;;;;;;;5.10;4.50;;;;;;;33.87;31.80;97137.06;5088955;28;21057;-68
2023/06/20 09:59:41;;;;;;;6.23;4.40;;;;;;;33.78;31.77;97136.19;5079045;28;20466;-69
2023/06/20 10:02:07;;;;;;;7.87;5.00;;;;;;;33.73;31.68;97128.97;5102019;28;20496;-69
2023/06/20 10:04:39;;;;;;;6.67;4.43;;;;;;;33.79;31.53;97135.88;5095241;28;20431;-69
2023/06/20 10:07:05;;;;;;;10.07;4.77;;;;;;;33.85;31.44;97123.78;5090833;28;20214;-69
2023/06/20 10:09:30;;;;;;;9.30;4.80;;;;;;;34.06;31.57;97126.06;5088483;28;20508;-68
2023/06/20 10:11:56;;;;;;;7.40;4.27;;;;;;;34.30;31.07;97127.66;5092322;28;20189;-69
2023/06/20 10:14:21;;;;;;;6.47;4.20;;;;;;;34.41;30.44;97131.75;5079400;28;20189;-68
2023/06/20 10:16:51;;;;;;;8.23;4.50;;;;;;;34.69;30.05;97128.88;5089338;28;20725;-68
2023/06/20 10:19:18;;;;;;;5.00;4.53;;;;;;;34.74;29.74;97131.47;5092827;28;20221;-69
2023/06/20 10:22:00;;;;;;;5.70;4.13;;;;;;;34.70;29.84;97135.94;5088831;28;20446;-68
2023/06/20 10:24:30;;;;;;;10.00;4.60;;;;;;;34.72;29.60;97127.44;5089605;28;20480;-69
2023/06/20 10:26:59;;;;;;;8.93;4.30;;;;;;;34.89;30.52;97121.31;5096325;28;20482;-69
2023/06/20 10:29:25;;;;;;;7.23;4.63;;;;;;;35.09;30.01;97121.88;5089535;28;20803;-69
2023/06/20 10:32:04;;;;;;;7.33;4.63;;;;;;;34.89;28.77;97116.66;5092273;28;20503;-69
2023/06/20 10:34:35;;;;;;;9.47;4.40;;;;;;;34.91;29.13;97114.44;5097501;28;20715;-69
2023/06/20 10:37:19;;;;;;;6.63;3.97;;;;;;;35.05;30.13;97127.94;5087740;28;20415;-69
2023/06/20 10:39:54;;;;;;;6.43;4.97;;;;;;;34.96;28.97;97124.41;5090253;28;20435;-69
2023/06/20 10:42:41;;;;;;;5.10;4.60;;;;;;;35.08;28.18;97120.28;5034532;28;20455;-69
2023/06/20 10:45:22;;;;;;;7.70;4.20;;;;;;;35.14;28.11;97116.31;5082613;28;20424;-69
2023/06/20 10:47:49;;;;;;;9.33;4.10;;;;;;;35.37;28.63;97125.16;5087488;28;20423;-69
2023/06/20 10:50:15;;;;;;;7.73;4.00;;;;;;;35.57;27.53;97118.34;5098614;28;20465;-68
2023/06/20 10:52:41;;;;;;;8.90;4.60;;;;;;;35.78;27.00;97123.19;5089619;28;20427;-68
2023/06/20 10:55:12;;;;;;;5.30;4.33;;;;;;;35.94;27.51;97116.13;5096497;28;20426;-69
2023/06/20 10:57:43;;;;;;;13.37;4.47;;;;;;;36.00;27.02;97124.16;5088580;28;20185;-70
2023/06/20 11:00:18;;;;;;;9.40;4.13;;;;;;;36.17;26.98;97113.22;5090507;28;20492;-69
2023/06/20 11:02:46;;;;;;;14.17;4.27;;;;;;;36.03;25.87;97112.63;5076735;28;20438;-69
2023/06/20 11:05:11;;;;;;;8.10;4.40;;;;;;;35.80;26.18;97104.56;5094385;28;20517;-69
2023/06/20 11:08:12;;;;;;;8.30;3.90;;;;;;;35.60;24.93;97112.25;5090510;28;20521;-69
2023/06/20 11:10:39;;;;;;;8.30;3.80;;;;;;;35.44;24.59;97103.75;5017096;28;20230;-69
2023/06/20 11:13:06;;;;;;;10.50;3.90;;;;;;;35.64;25.27;97105.06;5076232;28;20431;-68
2023/06/20 11:15:33;;;;;;;7.90;4.10;;;;;;;35.90;25.20;97104.28;5087845;28;20943;-68
2023/06/20 11:18:06;;;;;;;8.53;4.63;;;;;;;35.80;24.71;97104.56;5087926;28;20432;-70
2023/06/20 11:20:35;;;;;;;4.93;4.23;;;;;;;36.06;24.93;97087.44;5084851;28;20435;-70
2023/06/20 11:23:02;;;;;;;10.20;4.60;;;;;;;36.19;24.85;97102.81;5088663;28;20415;-69
2023/06/20 11:25:33;;;;;;;7.37;3.93;;;;;;;36.37;24.41;97094.59;5089776;28;20466;-70
2023/06/20 11:28:09;;;;;;;9.43;4.40;;;;;;;36.53;24.79;97092.19;5093806;28;20948;-70
2023/06/20 11:30:39;;;;;;;7.47;3.70;;;;;;;36.66;24.50;97093.13;5084352;28;21206;-69
2023/06/20 11:33:05;;;;;;;5.63;3.83;;;;;;;36.80;24.80;97085.50;5098360;28;20809;-70